Terminal Aerodrome Forecast
Issued by NWS

Home | Current Version | Previous Version | Text Only | Print | Product List | Glossary On
Versions: 1 2 3 4 5 6 7 8 9 10 11 12 13
367
FTUS46 KMTR 242320
TAFMRY
TAF
KMRY 242320Z 2500/2524 29006KT P6SM FEW040
     FM250300 21004KT P6SM FEW050
     FM250400 15004KT P6SM SCT030
     FM251000 12004KT P6SM BKN040
     FM251500 VRB04KT P6SM SCT050
     FM252100 27005KT P6SM BKN050=

USA.gov is the U.S. government's official web portal to all federal, state and local government web resources and services.